sensor_id;sensor_type;location;lat;lon;timestamp;temperature;humidity
3275;DHT22;1649;53.672;10.064;2022-10-03T00:01:11;11.00;99.90
3275;DHT22;1649;53.672;10.064;2022-10-03T00:03:51;11.00;99.90
3275;DHT22;1649;53.672;10.064;2022-10-03T00:06:28;11.00;99.90
3275;DHT22;1649;53.672;10.064;2022-10-03T00:09:23;10.90;99.90
3275;DHT22;1649;53.672;10.064;2022-10-03T00:15:02;10.90;99.90
3275;DHT22;1649;53.672;10.064;2022-10-03T00:20:30;10.90;99.90
3275;DHT22;1649;53.672;10.064;2022-10-03T00:23:03;11.00;99.90
3275;DHT22;1649;53.672;10.064;2022-10-03T00:31:11;11.10;99.90
3275;DHT22;1649;53.672;10.064;2022-10-03T00:37:11;11.10;99.90
3275;DHT22;1649;53.672;10.064;2022-10-03T00:43:13;11.10;99.90
3275;DHT22;1649;53.672;10.064;2022-10-03T00:48:40;11.20;99.90
3275;DHT22;1649;53.672;10.064;2022-10-03T00:51:31;11.10;99.90
3275;DHT22;1649;53.672;10.064;2022-10-03T01:00:02;11.10;99.90
3275;DHT22;1649;53.672;10.064;2022-10-03T01:10:42;10.80;99.90
3275;DHT22;1649;53.672;10.064;2022-10-03T01:13:16;10.80;99.90
3275;DHT22;1649;53.672;10.064;2022-10-03T01:16:06;10.90;99.90
3275;DHT22;1649;53.672;10.064;2022-10-03T01:18:50;10.90;99.90
3275;DHT22;1649;53.672;10.064;2022-10-03T01:21:47;11.00;99.90
3275;DHT22;1649;53.672;10.064;2022-10-03T01:27:14;11.00;99.90
3275;DHT22;1649;53.672;10.064;2022-10-03T01:32:37;11.00;99.90
3275;DHT22;1649;53.672;10.064;2022-10-03T01:38:13;10.90;99.90
3275;DHT22;1649;53.672;10.064;2022-10-03T01:41:06;10.80;99.90
3275;DHT22;1649;53.672;10.064;2022-10-03T01:49:18;10.80;99.90
3275;DHT22;1649;53.672;10.064;2022-10-03T01:55:04;10.70;99.90
3275;DHT22;1649;53.672;10.064;2022-10-03T01:57:50;10.70;99.90
3275;DHT22;1649;53.672;10.064;2022-10-03T02:00:31;10.70;99.90
3275;DHT22;1649;53.672;10.064;2022-10-03T02:03:30;10.70;99.90
3275;DHT22;1649;53.672;10.064;2022-10-03T02:06:13;10.70;99.90
3275;DHT22;1649;53.672;10.064;2022-10-03T02:08:59;10.80;99.90
3275;DHT22;1649;53.672;10.064;2022-10-03T02:11:37;10.80;99.90
3275;DHT22;1649;53.672;10.064;2022-10-03T02:14:06;10.70;99.90
3275;DHT22;1649;53.672;10.064;2022-10-03T02:16:43;10.70;99.90
3275;DHT22;1649;53.672;10.064;2022-10-03T02:19:35;10.70;99.90
3275;DHT22;1649;53.672;10.064;2022-10-03T02:25:08;10.70;99.90
3275;DHT22;1649;53.672;10.064;2022-10-03T02:44:53;10.50;99.90
3275;DHT22;1649;53.672;10.064;2022-10-03T02:53:00;10.40;99.90
3275;DHT22;1649;53.672;10.064;2022-10-03T02:56:10;10.40;99.90
3275;DHT22;1649;53.672;10.064;2022-10-03T03:01:41;10.40;99.90
3275;DHT22;1649;53.672;10.064;2022-10-03T03:12:41;10.30;99.90
3275;DHT22;1649;53.672;10.064;2022-10-03T03:15:29;10.30;
3275;DHT22;1649;53.672;10.064;2022-10-03T03:26:34;10.20;99.90
3275;DHT22;1649;53.672;10.064;2022-10-03T03:32:22;10.20;99.90
3275;DHT22;1649;53.672;10.064;2022-10-03T03:40:34;10.20;99.90
3275;DHT22;1649;53.672;10.064;2022-10-03T03:43:28;10.10;99.90
3275;DHT22;1649;53.672;10.064;2022-10-03T03:46:20;10.20;99.90
3275;DHT22;1649;53.672;10.064;2022-10-03T03:48:59;10.10;99.90
3275;DHT22;1649;53.672;10.064;2022-10-03T03:51:42;10.10;99.90
3275;DHT22;1649;53.672;10.064;2022-10-03T03:54:40;10.00;99.90
3275;DHT22;1649;53.672;10.064;2022-10-03T03:57:15;10.00;99.90
3275;DHT22;1649;53.672;10.064;2022-10-03T04:00:07;10.00;99.90
3275;DHT22;1649;53.672;10.064;2022-10-03T04:16:55;10.00;99.90
3275;DHT22;1649;53.672;10.064;2022-10-03T04:20:48;10.00;99.90
3275;DHT22;1649;53.672;10.064;2022-10-03T04:23:02;9.90;99.90
3275;DHT22;1649;53.672;10.064;2022-10-03T04:31:48;9.80;99.90
3275;DHT22;1649;53.672;10.064;2022-10-03T04:37:25;9.70;99.90
3275;DHT22;1649;53.672;10.064;2022-10-03T04:43:19;9.70;99.90
3275;DHT22;1649;53.672;10.064;2022-10-03T04:46:03;9.70;99.90
3275;DHT22;1649;53.672;10.064;2022-10-03T04:48:39;9.70;99.90
3275;DHT22;1649;53.672;10.064;2022-10-03T04:53:59;9.70;99.90
3275;DHT22;1649;53.672;10.064;2022-10-03T04:56:43;9.70;99.90
3275;DHT22;1649;53.672;10.064;2022-10-03T05:02:08;9.60;99.90
3275;DHT22;1649;53.672;10.064;2022-10-03T05:08:13;9.60;99.90
3275;DHT22;1649;53.672;10.064;2022-10-03T05:13:48;9.60;99.90
3275;DHT22;1649;53.672;10.064;2022-10-03T05:19:32;9.60;99.90
3275;DHT22;1649;53.672;10.064;2022-10-03T05:25:13;9.60;99.90
3275;DHT22;1649;53.672;10.064;2022-10-03T05:27:57;9.60;99.90
3275;DHT22;1649;53.672;10.064;2022-10-03T05:30:35;9.60;99.90
3275;DHT22;1649;53.672;10.064;2022-10-03T05:33:46;9.70;99.90
3275;DHT22;1649;53.672;10.064;2022-10-03T05:36:47;9.70;99.90
3275;DHT22;1649;53.672;10.064;2022-10-03T05:45:37;9.70;99.90
3275;DHT22;1649;53.672;10.064;2022-10-03T05:47:47;9.70;99.90
3275;DHT22;1649;53.672;10.064;2022-10-03T05:50:31;9.70;99.90
3275;DHT22;1649;53.672;10.064;2022-10-03T06:02:11;9.90;99.90
3275;DHT22;1649;53.672;10.064;2022-10-03T06:07:56;10.20;99.90
3275;DHT22;1649;53.672;10.064;2022-10-03T06:10:44;10.20;99.90
3275;DHT22;1649;53.672;10.064;2022-10-03T06:15:55;10.40;99.90
3275;DHT22;1649;53.672;10.064;2022-10-03T06:21:13;10.60;99.90
3275;DHT22;1649;53.672;10.064;2022-10-03T06:24:16;10.60;99.90
3275;DHT22;1649;53.672;10.064;2022-10-03T06:35:38;10.90;99.90
3275;DHT22;1649;53.672;10.064;2022-10-03T06:41:43;11.00;99.90
3275;DHT22;1649;53.672;10.064;2022-10-03T06:56:06;11.50;99.90
3275;DHT22;1649;53.672;10.064;2022-10-03T07:04:53;11.90;99.90
3275;DHT22;1649;53.672;10.064;2022-10-03T07:13:01;11.90;99.90
3275;DHT22;1649;53.672;10.064;2022-10-03T07:16:02;12.00;99.90
3275;DHT22;1649;53.672;10.064;2022-10-03T07:38:07;12.50;99.90
3275;DHT22;1649;53.672;10.064;2022-10-03T07:41:17;12.90;99.90
3275;DHT22;1649;53.672;10.064;2022-10-03T07:43:50;13.70;99.90
3275;DHT22;1649;53.672;10.064;2022-10-03T08:06:22;14.50;99.90
3275;DHT22;1649;53.672;10.064;2022-10-03T08:11:35;14.40;99.90
3275;DHT22;1649;53.672;10.064;2022-10-03T08:28:40;15.90;99.90
3275;DHT22;1649;53.672;10.064;2022-10-03T08:31:13;16.40;99.90
3275;DHT22;1649;53.672;10.064;2022-10-03T08:44:25;15.80;99.90
3275;DHT22;1649;53.672;10.064;2022-10-03T08:50:26;15.80;99.90
3275;DHT22;1649;53.672;10.064;2022-10-03T08:53:29;15.70;99.90
3275;DHT22;1649;53.672;10.064;2022-10-03T08:56:07;15.90;99.90
3275;DHT22;1649;53.672;10.064;2022-10-03T08:59:03;15.90;99.90
3275;DHT22;1649;53.672;10.064;2022-10-03T09:07:35;16.30;99.90
3275;DHT22;1649;53.672;10.064;2022-10-03T09:13:11;16.40;99.90
3275;DHT22;1649;53.672;10.064;2022-10-03T09:24:20;16.10;99.90
3275;DHT22;1649;53.672;10.064;2022-10-03T09:27:07;15.90;99.90
3275;DHT22;1649;53.672;10.064;2022-10-03T09:35:41;15.60;99.90
3275;DHT22;1649;53.672;10.064;2022-10-03T09:41:27;16.30;99.90
3275;DHT22;1649;53.672;10.064;2022-10-03T09:44:20;17.10;99.90
3275;DHT22;1649;53.672;10.064;2022-10-03T09:50:23;17.00;99.90
3275;DHT22;1649;53.672;10.064;2022-10-03T09:53:29;17.10;99.90
3275;DHT22;1649;53.672;10.064;2022-10-03T09:59:27;18.00;99.90
3275;DHT22;1649;53.672;10.064;2022-10-03T10:05:15;17.50;99.90
3275;DHT22;1649;53.672;10.064;2022-10-03T10:07:59;17.20;99.90
3275;DHT22;1649;53.672;10.064;2022-10-03T10:10:45;17.10;99.90
3275;DHT22;1649;53.672;10.064;2022-10-03T10:18:32;17.40;99.90
3275;DHT22;1649;53.672;10.064;2022-10-03T10:30:00;16.60;99.90
3275;DHT22;1649;53.672;10.064;2022-10-03T10:36:04;16.50;99.90
3275;DHT22;1649;53.672;10.064;2022-10-03T10:56:49;17.90;99.90
3275;DHT22;1649;53.672;10.064;2022-10-03T11:05:35;17.20;99.90
3275;DHT22;1649;53.672;10.064;2022-10-03T11:11:12;17.10;99.90
3275;DHT22;1649;53.672;10.064;2022-10-03T11:25:13;17.00;99.90
3275;DHT22;1649;53.672;10.064;2022-10-03T11:41:38;16.80;99.90
3275;DHT22;1649;53.672;10.064;2022-10-03T11:44:16;17.00;99.90
3275;DHT22;1649;53.672;10.064;2022-10-03T11:46:55;17.40;99.90
3275;DHT22;1649;53.672;10.064;2022-10-03T11:50:17;18.00;99.90
3275;DHT22;1649;53.672;10.064;2022-10-03T11:55:50;18.30;99.90
3275;DHT22;1649;53.672;10.064;2022-10-03T12:05:11;17.70;99.90
3275;DHT22;1649;53.672;10.064;2022-10-03T12:07:37;17.40;99.90
3275;DHT22;1649;53.672;10.064;2022-10-03T12:13:17;17.30;99.90
3275;DHT22;1649;53.672;10.064;2022-10-03T12:15:51;17.30;99.90
3275;DHT22;1649;53.672;10.064;2022-10-03T12:21:11;17.10;99.90
3275;DHT22;1649;53.672;10.064;2022-10-03T12:23:49;17.00;99.90
3275;DHT22;1649;53.672;10.064;2022-10-03T12:26:46;16.90;99.90
3275;DHT22;1649;53.672;10.064;2022-10-03T12:29:19;16.70;99.90
3275;DHT22;1649;53.672;10.064;2022-10-03T12:34:39;16.80;99.90
3275;DHT22;1649;53.672;10.064;2022-10-03T12:42:47;17.00;99.90
3275;DHT22;1649;53.672;10.064;2022-10-03T12:45:37;17.10;99.90
3275;DHT22;1649;53.672;10.064;2022-10-03T12:56:04;17.50;99.90
3275;DHT22;1649;53.672;10.064;2022-10-03T12:58:51;17.30;99.90
3275;DHT22;1649;53.672;10.064;2022-10-03T13:04:05;17.10;99.90
3275;DHT22;1649;53.672;10.064;2022-10-03T13:06:44;16.90;99.90
3275;DHT22;1649;53.672;10.064;2022-10-03T13:17:21;15.70;99.90
3275;DHT22;1649;53.672;10.064;2022-10-03T13:19:57;15.70;99.90
3275;DHT22;1649;53.672;10.064;2022-10-03T13:25:25;15.70;99.90
3275;DHT22;1649;53.672;10.064;2022-10-03T13:28:16;15.80;99.90
3275;DHT22;1649;53.672;10.064;2022-10-03T13:30:50;15.90;99.90
3275;DHT22;1649;53.672;10.064;2022-10-03T13:33:21;15.90;99.90
3275;DHT22;1649;53.672;10.064;2022-10-03T13:36:38;15.90;99.90
3275;DHT22;1649;53.672;10.064;2022-10-03T13:39:18;16.00;99.90
3275;DHT22;1649;53.672;10.064;2022-10-03T13:42:11;16.00;99.90
3275;DHT22;1649;53.672;10.064;2022-10-03T13:44:49;16.00;99.90
3275;DHT22;1649;53.672;10.064;2022-10-03T13:47:45;16.00;99.90
3275;DHT22;1649;53.672;10.064;2022-10-03T13:50:16;16.00;99.90
3275;DHT22;1649;53.672;10.064;2022-10-03T13:53:08;16.10;99.90
3275;DHT22;1649;53.672;10.064;2022-10-03T13:55:48;16.10;99.90
3275;DHT22;1649;53.672;10.064;2022-10-03T13:58:41;16.20;99.90
3275;DHT22;1649;53.672;10.064;2022-10-03T14:01:35;16.20;99.90
3275;DHT22;1649;53.672;10.064;2022-10-03T14:10:43;16.20;99.90
3275;DHT22;1649;53.672;10.064;2022-10-03T14:13:18;16.30;99.90
3275;DHT22;1649;53.672;10.064;2022-10-03T14:15:56;16.30;99.90
3275;DHT22;1649;53.672;10.064;2022-10-03T14:24:05;16.20;99.90
3275;DHT22;1649;53.672;10.064;2022-10-03T14:26:46;16.20;99.90
3275;DHT22;1649;53.672;10.064;2022-10-03T14:29:21;16.10;99.90
3275;DHT22;1649;53.672;10.064;2022-10-03T14:32:02;16.10;99.90
3275;DHT22;1649;53.672;10.064;2022-10-03T14:34:48;16.10;99.90
3275;DHT22;1649;53.672;10.064;2022-10-03T14:45:38;15.90;99.90
3275;DHT22;1649;53.672;10.064;2022-10-03T14:48:17;15.70;99.90
3275;DHT22;1649;53.672;10.064;2022-10-03T14:50:45;15.60;99.90
3275;DHT22;1649;53.672;10.064;2022-10-03T14:53:17;15.50;99.90
3275;DHT22;1649;53.672;10.064;2022-10-03T14:58:20;15.30;99.90
3275;DHT22;1649;53.672;10.064;2022-10-03T15:00:53;15.30;99.90
3275;DHT22;1649;53.672;10.064;2022-10-03T15:03:33;15.40;99.90
3275;DHT22;1649;53.672;10.064;2022-10-03T15:06:29;15.50;99.90
3275;DHT22;1649;53.672;10.064;2022-10-03T15:08:59;15.60;99.90
3275;DHT22;1649;53.672;10.064;2022-10-03T15:11:30;15.70;99.90
3275;DHT22;1649;53.672;10.064;2022-10-03T15:14:00;15.70;99.90
3275;DHT22;1649;53.672;10.064;2022-10-03T15:16:33;15.70;99.90
3275;DHT22;1649;53.672;10.064;2022-10-03T15:19:08;15.70;99.90
3275;DHT22;1649;53.672;10.064;2022-10-03T15:21:36;15.60;99.90
3275;DHT22;1649;53.672;10.064;2022-10-03T15:24:06;15.70;99.90
3275;DHT22;1649;53.672;10.064;2022-10-03T15:26:37;15.70;99.90
3275;DHT22;1649;53.672;10.064;2022-10-03T15:29:05;15.60;99.90
3275;DHT22;1649;53.672;10.064;2022-10-03T15:31:35;15.60;99.90
3275;DHT22;1649;53.672;10.064;2022-10-03T15:34:05;15.60;99.90
3275;DHT22;1649;53.672;10.064;2022-10-03T15:36:35;15.60;99.90
3275;DHT22;1649;53.672;10.064;2022-10-03T15:39:17;15.50;99.90
3275;DHT22;1649;53.672;10.064;2022-10-03T15:41:55;15.60;99.90
3275;DHT22;1649;53.672;10.064;2022-10-03T15:44:33;15.50;99.90
3275;DHT22;1649;53.672;10.064;2022-10-03T15:47:08;15.40;99.90
3275;DHT22;1649;53.672;10.064;2022-10-03T15:49:50;15.40;99.90
3275;DHT22;1649;53.672;10.064;2022-10-03T15:52:32;15.30;99.90
3275;DHT22;1649;53.672;10.064;2022-10-03T15:55:02;15.30;99.90
3275;DHT22;1649;53.672;10.064;2022-10-03T15:57:33;15.30;99.90
3275;DHT22;1649;53.672;10.064;2022-10-03T16:00:00;15.20;99.90
3275;DHT22;1649;53.672;10.064;2022-10-03T16:02:38;15.20;99.90
3275;DHT22;1649;53.672;10.064;2022-10-03T16:05:14;15.10;99.90
3275;DHT22;1649;53.672;10.064;2022-10-03T16:10:26;14.90;99.90
3275;DHT22;1649;53.672;10.064;2022-10-03T16:16:12;14.80;99.90
3275;DHT22;1649;53.672;10.064;2022-10-03T16:21:21;14.60;99.90
3275;DHT22;1649;53.672;10.064;2022-10-03T16:23:52;14.50;99.90
3275;DHT22;1649;53.672;10.064;2022-10-03T16:26:23;14.50;99.90
3275;DHT22;1649;53.672;10.064;2022-10-03T16:32:03;14.40;99.90
3275;DHT22;1649;53.672;10.064;2022-10-03T16:34:30;14.30;99.90
3275;DHT22;1649;53.672;10.064;2022-10-03T16:36:57;14.20;99.90
3275;DHT22;1649;53.672;10.064;2022-10-03T16:39:34;14.10;99.90
3275;DHT22;1649;53.672;10.064;2022-10-03T16:42:09;14.10;99.90
3275;DHT22;1649;53.672;10.064;2022-10-03T16:44:50;14.00;99.90
3275;DHT22;1649;53.672;10.064;2022-10-03T16:47:17;14.00;99.90
3275;DHT22;1649;53.672;10.064;2022-10-03T16:49:55;14.00;99.90
3275;DHT22;1649;53.672;10.064;2022-10-03T16:52:40;13.90;99.90
3275;DHT22;1649;53.672;10.064;2022-10-03T16:55:20;13.80;99.90
3275;DHT22;1649;53.672;10.064;2022-10-03T16:57:55;13.70;99.90
3275;DHT22;1649;53.672;10.064;2022-10-03T17:00:34;13.70;99.90
3275;DHT22;1649;53.672;10.064;2022-10-03T17:03:04;13.70;99.90
3275;DHT22;1649;53.672;10.064;2022-10-03T17:05:44;13.60;99.90
3275;DHT22;1649;53.672;10.064;2022-10-03T17:08:10;13.50;99.90
3275;DHT22;1649;53.672;10.064;2022-10-03T17:10:39;13.50;99.90
3275;DHT22;1649;53.672;10.064;2022-10-03T17:13:11;13.50;99.90
3275;DHT22;1649;53.672;10.064;2022-10-03T17:15:45;13.40;99.90
3275;DHT22;1649;53.672;10.064;2022-10-03T17:18:30;13.40;99.90
3275;DHT22;1649;53.672;10.064;2022-10-03T17:23:44;13.40;99.90
3275;DHT22;1649;53.672;10.064;2022-10-03T17:26:24;13.30;99.90
3275;DHT22;1649;53.672;10.064;2022-10-03T17:31:45;13.30;99.90
3275;DHT22;1649;53.672;10.064;2022-10-03T17:37:10;13.30;99.90
3275;DHT22;1649;53.672;10.064;2022-10-03T17:39:47;13.30;99.90
3275;DHT22;1649;53.672;10.064;2022-10-03T17:42:36;13.30;99.90
3275;DHT22;1649;53.672;10.064;2022-10-03T17:45:27;13.30;99.90
3275;DHT22;1649;53.672;10.064;2022-10-03T17:50:55;13.40;99.90
3275;DHT22;1649;53.672;10.064;2022-10-03T17:53:29;13.40;99.90
3275;DHT22;1649;53.672;10.064;2022-10-03T17:56:16;13.30;99.90
3275;DHT22;1649;53.672;10.064;2022-10-03T17:58:59;13.20;99.90
3275;DHT22;1649;53.672;10.064;2022-10-03T18:01:42;13.20;99.90
3275;DHT22;1649;53.672;10.064;2022-10-03T18:04:17;13.10;99.90
3275;DHT22;1649;53.672;10.064;2022-10-03T18:06:46;13.10;99.90
3275;DHT22;1649;53.672;10.064;2022-10-03T18:11:39;13.00;99.90
3275;DHT22;1649;53.672;10.064;2022-10-03T18:17:26;12.90;99.90
3275;DHT22;1649;53.672;10.064;2022-10-03T18:20:22;12.90;99.90
3275;DHT22;1649;53.672;10.064;2022-10-03T18:22:58;12.90;99.90
3275;DHT22;1649;53.672;10.064;2022-10-03T18:25:31;12.80;99.90
3275;DHT22;1649;53.672;10.064;2022-10-03T18:28:21;12.80;99.90
3275;DHT22;1649;53.672;10.064;2022-10-03T18:30:55;12.80;99.90
3275;DHT22;1649;53.672;10.064;2022-10-03T18:33:33;12.70;99.90
3275;DHT22;1649;53.672;10.064;2022-10-03T18:36:08;12.70;99.90
3275;DHT22;1649;53.672;10.064;2022-10-03T18:38:36;12.70;99.90
3275;DHT22;1649;53.672;10.064;2022-10-03T18:41:04;12.70;99.90
3275;DHT22;1649;53.672;10.064;2022-10-03T18:43:37;12.70;99.90
3275;DHT22;1649;53.672;10.064;2022-10-03T18:46:25;12.70;99.90
3275;DHT22;1649;53.672;10.064;2022-10-03T18:49:01;12.70;99.90
3275;DHT22;1649;53.672;10.064;2022-10-03T18:51:40;12.60;99.90
3275;DHT22;1649;53.672;10.064;2022-10-03T18:54:39;12.60;99.90
3275;DHT22;1649;53.672;10.064;2022-10-03T18:57:17;12.60;99.90
3275;DHT22;1649;53.672;10.064;2022-10-03T19:02:57;12.50;99.90
3275;DHT22;1649;53.672;10.064;2022-10-03T19:05:28;12.50;99.90
3275;DHT22;1649;53.672;10.064;2022-10-03T19:08:07;12.40;99.90
3275;DHT22;1649;53.672;10.064;2022-10-03T19:10:41;12.40;99.90
3275;DHT22;1649;53.672;10.064;2022-10-03T19:13:36;12.40;99.90
3275;DHT22;1649;53.672;10.064;2022-10-03T19:16:23;12.40;99.90
3275;DHT22;1649;53.672;10.064;2022-10-03T19:19:13;12.30;99.90
3275;DHT22;1649;53.672;10.064;2022-10-03T19:21:39;12.30;99.90
3275;DHT22;1649;53.672;10.064;2022-10-03T19:24:10;12.30;99.90
3275;DHT22;1649;53.672;10.064;2022-10-03T19:26:46;12.30;99.90
3275;DHT22;1649;53.672;10.064;2022-10-03T19:29:30;12.30;99.90
3275;DHT22;1649;53.672;10.064;2022-10-03T19:34:40;12.30;99.90
3275;DHT22;1649;53.672;10.064;2022-10-03T19:37:40;12.30;99.90
3275;DHT22;1649;53.672;10.064;2022-10-03T19:40:29;12.30;99.90
3275;DHT22;1649;53.672;10.064;2022-10-03T19:43:28;12.30;99.90
3275;DHT22;1649;53.672;10.064;2022-10-03T19:46:02;12.20;99.90
3275;DHT22;1649;53.672;10.064;2022-10-03T19:48:33;12.30;99.90
3275;DHT22;1649;53.672;10.064;2022-10-03T19:51:19;12.20;99.90
3275;DHT22;1649;53.672;10.064;2022-10-03T19:53:47;12.30;99.90
3275;DHT22;1649;53.672;10.064;2022-10-03T19:56:17;12.30;99.90
3275;DHT22;1649;53.672;10.064;2022-10-03T19:58:44;12.20;99.90
3275;DHT22;1649;53.672;10.064;2022-10-03T20:01:11;12.20;99.90
3275;DHT22;1649;53.672;10.064;2022-10-03T20:03:51;12.20;99.90
3275;DHT22;1649;53.672;10.064;2022-10-03T20:08:59;12.20;99.90
3275;DHT22;1649;53.672;10.064;2022-10-03T20:11:42;12.10;99.90
3275;DHT22;1649;53.672;10.064;2022-10-03T20:14:18;12.10;99.90
3275;DHT22;1649;53.672;10.064;2022-10-03T20:16:48;12.10;99.90
3275;DHT22;1649;53.672;10.064;2022-10-03T20:19:22;12.10;99.90
3275;DHT22;1649;53.672;10.064;2022-10-03T20:21:56;12.20;99.90
3275;DHT22;1649;53.672;10.064;2022-10-03T20:32:48;12.20;99.90
3275;DHT22;1649;53.672;10.064;2022-10-03T20:35:24;12.20;99.90
3275;DHT22;1649;53.672;10.064;2022-10-03T20:38:12;12.10;99.90
3275;DHT22;1649;53.672;10.064;2022-10-03T20:40:51;12.10;99.90
3275;DHT22;1649;53.672;10.064;2022-10-03T20:43:27;12.10;99.90
3275;DHT22;1649;53.672;10.064;2022-10-03T20:46:08;12.00;99.90
3275;DHT22;1649;53.672;10.064;2022-10-03T20:48:40;11.90;99.90
3275;DHT22;1649;53.672;10.064;2022-10-03T20:51:23;11.90;99.90
3275;DHT22;1649;53.672;10.064;2022-10-03T20:54:01;11.90;99.90
3275;DHT22;1649;53.672;10.064;2022-10-03T20:56:33;11.80;99.90
3275;DHT22;1649;53.672;10.064;2022-10-03T20:59:05;11.80;99.90
3275;DHT22;1649;53.672;10.064;2022-10-03T21:01:34;11.70;99.90
3275;DHT22;1649;53.672;10.064;2022-10-03T21:04:18;11.70;99.90
3275;DHT22;1649;53.672;10.064;2022-10-03T21:06:54;11.70;99.90
3275;DHT22;1649;53.672;10.064;2022-10-03T21:09:43;11.70;99.90
3275;DHT22;1649;53.672;10.064;2022-10-03T21:12:19;11.70;99.90
3275;DHT22;1649;53.672;10.064;2022-10-03T21:14:51;11.70;99.90
3275;DHT22;1649;53.672;10.064;2022-10-03T21:17:20;11.60;99.90
3275;DHT22;1649;53.672;10.064;2022-10-03T21:19:59;11.60;99.90
3275;DHT22;1649;53.672;10.064;2022-10-03T21:22:28;11.50;99.90
3275;DHT22;1649;53.672;10.064;2022-10-03T21:24:58;11.50;99.90
3275;DHT22;1649;53.672;10.064;2022-10-03T21:27:25;11.50;99.90
3275;DHT22;1649;53.672;10.064;2022-10-03T21:30:02;11.50;99.90
3275;DHT22;1649;53.672;10.064;2022-10-03T21:35:36;11.50;99.90
3275;DHT22;1649;53.672;10.064;2022-10-03T21:38:29;11.50;99.90
3275;DHT22;1649;53.672;10.064;2022-10-03T21:41:17;11.50;99.90
3275;DHT22;1649;53.672;10.064;2022-10-03T21:43:57;11.50;99.90
3275;DHT22;1649;53.672;10.064;2022-10-03T21:46:43;11.60;99.90
3275;DHT22;1649;53.672;10.064;2022-10-03T22:03:24;11.70;99.90
3275;DHT22;1649;53.672;10.064;2022-10-03T22:06:01;11.70;99.90
3275;DHT22;1649;53.672;10.064;2022-10-03T22:08:30;11.60;99.90
3275;DHT22;1649;53.672;10.064;2022-10-03T22:11:06;11.60;99.90
3275;DHT22;1649;53.672;10.064;2022-10-03T22:13:36;11.60;99.90
3275;DHT22;1649;53.672;10.064;2022-10-03T22:16:13;11.60;99.90
3275;DHT22;1649;53.672;10.064;2022-10-03T22:19:12;11.60;99.90
3275;DHT22;1649;53.672;10.064;2022-10-03T22:24:46;11.80;99.90
3275;DHT22;1649;53.672;10.064;2022-10-03T22:27:23;11.70;99.90
3275;DHT22;1649;53.672;10.064;2022-10-03T22:30:15;11.70;99.90
3275;DHT22;1649;53.672;10.064;2022-10-03T22:35:48;11.70;99.90
3275;DHT22;1649;53.672;10.064;2022-10-03T22:38:16;11.70;99.90
3275;DHT22;1649;53.672;10.064;2022-10-03T22:40:45;11.70;99.90
3275;DHT22;1649;53.672;10.064;2022-10-03T22:43:12;11.60;99.90
3275;DHT22;1649;53.672;10.064;2022-10-03T22:45:41;11.60;99.90
3275;DHT22;1649;53.672;10.064;2022-10-03T22:48:25;11.60;99.90
3275;DHT22;1649;53.672;10.064;2022-10-03T22:50:54;11.60;99.90
3275;DHT22;1649;53.672;10.064;2022-10-03T22:53:26;11.60;99.90
3275;DHT22;1649;53.672;10.064;2022-10-03T22:55:55;11.50;99.90
3275;DHT22;1649;53.672;10.064;2022-10-03T22:58:24;11.50;99.90
3275;DHT22;1649;53.672;10.064;2022-10-03T23:00:52;11.40;99.90
3275;DHT22;1649;53.672;10.064;2022-10-03T23:03:23;11.40;99.90
3275;DHT22;1649;53.672;10.064;2022-10-03T23:06:13;11.30;99.90
3275;DHT22;1649;53.672;10.064;2022-10-03T23:11:48;11.30;99.90
3275;DHT22;1649;53.672;10.064;2022-10-03T23:14:38;11.40;99.90
3275;DHT22;1649;53.672;10.064;2022-10-03T23:17:20;11.30;99.90
3275;DHT22;1649;53.672;10.064;2022-10-03T23:20:55;11.30;99.90
3275;DHT22;1649;53.672;10.064;2022-10-03T23:22:53;11.30;99.90
3275;DHT22;1649;53.672;10.064;2022-10-03T23:25:23;11.20;99.90
3275;DHT22;1649;53.672;10.064;2022-10-03T23:32:52;11.30;99.90
3275;DHT22;1649;53.672;10.064;2022-10-03T23:35:40;11.30;99.90
3275;DHT22;1649;53.672;10.064;2022-10-03T23:41:43;11.30;99.90
3275;DHT22;1649;53.672;10.064;2022-10-03T23:43:55;11.30;99.90
3275;DHT22;1649;53.672;10.064;2022-10-03T23:46:23;11.30;99.90
3275;DHT22;1649;53.672;10.064;2022-10-03T23:48:52;11.30;99.90
3275;DHT22;1649;53.672;10.064;2022-10-03T23:53:53;11.20;99.90
3275;DHT22;1649;53.672;10.064;2022-10-03T23:56:48;11.20;99.90
